Time;durP1;ratioP1;P1;durP2;ratioP2;P2;SDS_P1;SDS_P2;PMS_P1;PMS_P2;Temp;Humidity;BMP_temperature;BMP_pressure;BME280_temperature;BME280_humidity;BME280_pressure;Samples;Min_cycle;Max_cycle;Signal;HPM_P1;HPM_P2
2022/07/02 00:02:26;;;;;;;6.75;2.53;;;13.30;99.90;;;;;;5115824;27;20047;-73
2022/07/02 00:04:59;;;;;;;8.52;2.45;;;13.30;99.90;;;;;;5134904;27;20063;-74
2022/07/02 00:07:27;;;;;;;4.75;2.45;;;13.20;99.90;;;;;;5132944;27;20051;-73
2022/07/02 00:09:55;;;;;;;3.17;2.47;;;13.20;99.90;;;;;;5133735;27;20524;-73
2022/07/02 00:12:23;;;;;;;6.85;2.75;;;13.20;99.90;;;;;;5116375;27;20051;-73
2022/07/02 00:14:53;;;;;;;6.07;2.72;;;13.10;99.90;;;;;;5116347;27;20043;-73
2022/07/02 00:17:21;;;;;;;5.43;2.80;;;13.10;99.90;;;;;;5115562;27;20055;-73
2022/07/02 00:19:48;;;;;;;4.30;2.70;;;13.10;99.90;;;;;;5115313;27;20617;-74
2022/07/02 00:22:16;;;;;;;7.57;3.17;;;13.00;99.90;;;;;;5134592;27;20092;-73
2022/07/02 00:24:43;;;;;;;5.13;2.90;;;13.00;99.90;;;;;;5133259;27;20571;-74
2022/07/02 00:27:12;;;;;;;4.55;2.65;;;12.90;99.90;;;;;;5133997;27;20047;-74
2022/07/02 00:29:44;;;;;;;7.35;2.88;;;12.90;99.90;;;;;;5133918;27;20069;-73
2022/07/02 00:32:12;;;;;;;8.73;3.00;;;12.80;99.90;;;;;;5115954;27;20055;-74
2022/07/02 00:34:40;;;;;;;4.95;2.97;;;12.70;99.90;;;;;;5116125;27;20058;-74
2022/07/02 00:37:08;;;;;;;6.30;3.00;;;12.70;99.90;;;;;;5133769;27;20104;-73
2022/07/02 00:39:35;;;;;;;6.40;2.70;;;12.70;99.90;;;;;;5134078;27;20126;-74
2022/07/02 00:42:04;;;;;;;3.92;2.85;;;12.70;99.90;;;;;;5132391;27;20055;-73
2022/07/02 00:44:32;;;;;;;6.07;2.80;;;12.60;99.90;;;;;;5133597;27;20443;-74
2022/07/02 00:47:02;;;;;;;4.25;2.63;;;12.60;99.90;;;;;;5135078;27;20444;-74
2022/07/02 00:49:32;;;;;;;6.78;2.67;;;12.70;99.90;;;;;;5155096;27;20043;-74
2022/07/02 00:51:59;;;;;;;8.52;3.15;;;12.60;99.90;;;;;;5153988;27;20145;-74
2022/07/02 00:54:26;;;;;;;10.52;3.20;;;12.60;99.90;;;;;;5136339;27;20067;-74
2022/07/02 00:56:53;;;;;;;8.80;3.67;;;12.60;99.90;;;;;;5154159;27;20099;-74
2022/07/02 00:59:21;;;;;;;9.73;3.13;;;12.60;99.90;;;;;;5135267;27;20061;-75
2022/07/02 01:01:49;;;;;;;10.60;3.75;;;12.50;99.90;;;;;;5154439;27;20042;-74
2022/07/02 01:04:17;;;;;;;5.95;3.10;;;12.50;99.90;;;;;;5136268;27;20490;-75
2022/07/02 01:06:46;;;;;;;7.80;3.63;;;12.50;99.90;;;;;;5131338;28;20050;-74
2022/07/02 01:12:01;;;;;;;7.78;3.22;;;12.40;99.90;;;;;;5132146;28;20051;-73
2022/07/02 01:14:28;;;;;;;4.85;3.42;;;12.40;99.90;;;;;;5133448;28;20047;-73
2022/07/02 01:16:55;;;;;;;5.80;3.40;;;12.40;99.90;;;;;;5134006;28;20047;-73
2022/07/02 01:19:24;;;;;;;4.75;2.97;;;12.30;99.90;;;;;;5133403;28;20047;-75
2022/07/02 01:22:18;;;;;;;7.82;4.18;;;12.30;99.90;;;;;;5115345;28;20099;-74
2022/07/02 01:24:46;;;;;;;9.32;3.80;;;12.30;99.90;;;;;;5133995;28;20047;-74
2022/07/02 01:27:13;;;;;;;5.43;3.60;;;12.20;99.90;;;;;;5132360;28;20100;-74
2022/07/02 01:29:40;;;;;;;6.57;3.50;;;12.20;99.90;;;;;;5132676;27;20095;-73
2022/07/02 01:32:09;;;;;;;6.60;3.97;;;12.20;99.90;;;;;;5135819;27;20050;-73
2022/07/02 01:34:38;;;;;;;5.88;3.85;;;12.20;99.90;;;;;;5153211;27;20506;-73
2022/07/02 01:37:07;;;;;;;6.53;3.70;;;12.20;99.90;;;;;;5152836;27;20486;-73
2022/07/02 01:39:35;;;;;;;9.25;3.67;;;12.20;99.90;;;;;;5133611;28;20076;-73
2022/07/02 01:42:02;;;;;;;9.18;3.83;;;12.10;99.90;;;;;;5114090;28;20103;-73
2022/07/02 01:44:29;;;;;;;9.68;3.78;;;12.10;99.90;;;;;;5115167;28;20051;-74
2022/07/02 01:46:56;;;;;;;9.20;3.83;;;12.10;99.90;;;;;;5114412;28;20055;-74
2022/07/02 01:49:23;;;;;;;5.25;3.63;;;12.10;99.90;;;;;;5144968;27;20046;-74
2022/07/02 01:51:50;;;;;;;9.02;4.07;;;12.00;99.90;;;;;;5154221;27;20107;-74
2022/07/02 01:54:17;;;;;;;7.13;3.92;;;12.00;99.90;;;;;;5153682;27;20509;-74
2022/07/02 01:56:45;;;;;;;7.82;4.20;;;12.00;99.90;;;;;;5135874;27;20050;-73
2022/07/02 01:59:13;;;;;;;5.32;3.80;;;12.00;99.90;;;;;;5135594;27;20185;-74
2022/07/02 02:01:40;;;;;;;9.40;4.22;;;12.00;99.90;;;;;;5134580;27;20055;-72
2022/07/02 02:04:07;;;;;;;6.85;3.88;;;12.00;99.90;;;;;;5154534;27;20190;-73
2022/07/02 02:06:34;;;;;;;9.30;4.18;;;11.90;99.90;;;;;;5154525;27;20088;-73
2022/07/02 02:09:01;;;;;;;6.10;3.88;;;11.90;99.90;;;;;;5138995;27;20051;-73
2022/07/02 02:11:28;;;;;;;8.23;3.88;;;11.90;99.90;;;;;;5147401;27;20054;-74
2022/07/02 02:13:58;;;;;;;8.40;4.43;;;12.10;99.90;;;;;;5118476;27;20046;-73
2022/07/02 02:16:25;;;;;;;9.27;3.97;;;11.90;99.90;;;;;;5118338;27;20047;-73
2022/07/02 02:18:52;;;;;;;7.47;4.13;;;11.80;99.90;;;;;;5137139;27;20112;-73
2022/07/02 02:21:20;;;;;;;7.70;4.10;;;11.80;99.90;;;;;;5136552;27;20482;-73
2022/07/02 02:23:46;;;;;;;8.52;4.03;;;11.80;99.90;;;;;;5117877;27;20054;-73
2022/07/02 02:26:13;;;;;;;7.95;3.70;;;11.80;99.90;;;;;;5119146;27;20074;-73
2022/07/02 02:28:40;;;;;;;8.40;4.40;;;11.80;99.90;;;;;;5117864;27;20047;-74
2022/07/02 02:31:09;;;;;;;5.68;3.83;;;11.80;99.90;;;;;;5135682;27;20039;-73
2022/07/02 02:33:36;;;;;;;8.95;4.28;;;11.70;99.90;;;;;;5136460;27;20055;-73
2022/07/02 02:36:03;;;;;;;8.40;3.85;;;11.80;99.90;;;;;;5127580;27;20513;-73
2022/07/02 02:38:30;;;;;;;6.35;3.97;;;11.80;99.90;;;;;;5117935;27;20047;-73
2022/07/02 02:40:57;;;;;;;8.55;3.63;;;11.70;99.90;;;;;;5136454;27;20122;-73
2022/07/02 02:43:24;;;;;;;6.15;3.55;;;11.70;99.90;;;;;;5135664;27;20138;-74
2022/07/02 02:45:51;;;;;;;7.43;4.30;;;11.70;99.90;;;;;;5136135;27;20047;-73
2022/07/02 02:48:19;;;;;;;9.30;4.13;;;11.70;99.90;;;;;;5118102;27;20051;-73
2022/07/02 02:50:46;;;;;;;7.95;3.90;;;11.70;99.90;;;;;;5135812;27;20124;-74
2022/07/02 02:53:13;;;;;;;5.22;3.65;;;11.70;99.90;;;;;;5117913;27;20449;-73
2022/07/02 02:55:40;;;;;;;6.68;3.58;;;11.70;99.90;;;;;;5136019;27;20472;-73
2022/07/02 02:58:07;;;;;;;5.75;3.70;;;11.70;99.90;;;;;;5117445;27;20486;-73
2022/07/02 03:00:34;;;;;;;6.78;3.65;;;11.70;99.90;;;;;;5136399;27;20092;-73
2022/07/02 03:03:00;;;;;;;7.60;4.15;;;11.70;99.90;;;;;;5135942;27;20051;-73
2022/07/02 03:05:29;;;;;;;6.53;3.60;;;11.70;99.90;;;;;;5117269;27;20054;-74
2022/07/02 03:07:56;;;;;;;6.40;3.65;;;11.70;99.90;;;;;;5136156;27;20070;-74
2022/07/02 03:10:23;;;;;;;8.70;3.25;;;11.70;99.90;;;;;;5136066;27;20038;-75
2022/07/02 03:12:50;;;;;;;7.78;3.50;;;11.80;99.90;;;;;;5134319;27;20047;-73
2022/07/02 03:15:16;;;;;;;7.50;3.95;;;11.80;99.90;;;;;;5117761;27;20051;-75
2022/07/02 03:17:43;;;;;;;8.27;3.50;;;11.80;99.90;;;;;;5117609;27;20563;-74
2022/07/02 03:20:11;;;;;;;5.57;3.90;;;11.80;99.90;;;;;;5134180;27;20441;-74
2022/07/02 03:22:39;;;;;;;6.38;4.03;;;11.80;99.90;;;;;;5135421;27;20511;-73
2022/07/02 03:25:07;;;;;;;6.85;4.43;;;11.80;99.90;;;;;;5135950;27;20055;-73
2022/07/02 03:27:34;;;;;;;9.73;4.13;;;11.80;99.90;;;;;;5134934;27;20126;-74
2022/07/02 03:30:01;;;;;;;6.95;4.15;;;11.80;99.90;;;;;;5117774;27;20402;-74
2022/07/02 03:32:29;;;;;;;7.45;3.65;;;11.80;99.90;;;;;;5134933;27;20047;-74
2022/07/02 03:34:56;;;;;;;5.38;3.45;;;11.80;99.90;;;;;;5135092;27;20081;-74
2022/07/02 03:37:27;;;;;;;9.43;4.57;;;11.80;99.90;;;;;;5116192;27;20051;-74
2022/07/02 03:39:56;;;;;;;11.68;4.60;;;11.80;99.90;;;;;;5116128;27;20051;-73
2022/07/02 03:42:23;;;;;;;7.85;4.07;;;11.90;99.90;;;;;;5135238;27;20051;-73
2022/07/02 03:44:50;;;;;;;9.32;4.63;;;11.80;99.90;;;;;;5117451;27;20397;-74
2022/07/02 03:47:17;;;;;;;10.65;4.25;;;11.80;99.90;;;;;;5116554;27;20051;-72
2022/07/02 03:49:44;;;;;;;6.68;3.70;;;11.80;99.90;;;;;;5117077;27;20099;-71
2022/07/02 03:52:11;;;;;;;7.60;4.38;;;11.90;99.90;;;;;;5116863;27;20096;-70
2022/07/02 03:54:38;;;;;;;10.05;4.40;;;11.80;99.90;;;;;;5115910;27;20051;-71
2022/07/02 03:57:07;;;;;;;9.20;4.85;;;11.90;99.90;;;;;;5135016;27;20047;-72
2022/07/02 03:59:33;;;;;;;7.50;4.65;;;11.90;99.90;;;;;;5117185;27;20092;-73
2022/07/02 04:02:00;;;;;;;6.78;4.05;;;11.90;99.90;;;;;;5115723;27;20039;-73
2022/07/02 04:04:27;;;;;;;9.63;4.63;;;11.90;99.90;;;;;;5116769;27;20051;-74
2022/07/02 04:06:54;;;;;;;9.23;4.43;;;12.00;99.90;;;;;;5126134;27;20043;-73
2022/07/02 04:09:21;;;;;;;7.20;4.40;;;12.00;99.90;;;;;;5116115;27;20111;-72
2022/07/02 04:11:48;;;;;;;9.80;4.47;;;12.10;99.90;;;;;;5116426;27;20108;-72
2022/07/02 04:14:16;;;;;;;8.13;4.55;;;12.00;99.90;;;;;;5134729;27;20070;-73
2022/07/02 04:16:43;;;;;;;8.90;4.78;;;12.10;99.90;;;;;;5133765;27;20051;-74
2022/07/02 04:19:10;;;;;;;7.20;5.10;;;12.20;99.90;;;;;;5116476;27;20055;-73
2022/07/02 04:21:37;;;;;;;13.40;5.32;;;12.20;99.90;;;;;;5134007;27;20057;-74
2022/07/02 04:24:04;;;;;;;17.55;5.53;;;12.30;99.90;;;;;;5134699;27;20043;-76
2022/07/02 04:26:30;;;;;;;10.93;4.35;;;12.30;99.90;;;;;;5116599;27;20452;-74
2022/07/02 04:28:57;;;;;;;7.93;4.45;;;12.30;99.90;;;;;;5115784;27;20047;-74
2022/07/02 04:31:26;;;;;;;13.48;4.60;;;12.40;99.90;;;;;;5117348;27;20051;-74
2022/07/02 04:33:52;;;;;;;5.88;4.50;;;12.50;99.90;;;;;;5141342;27;20103;-74
2022/07/02 04:36:19;;;;;;;11.32;4.95;;;12.50;99.90;;;;;;5121880;27;20043;-74
2022/07/02 04:38:46;;;;;;;7.78;4.55;;;12.60;99.90;;;;;;5138466;27;20054;-75
2022/07/02 04:41:13;;;;;;;16.10;5.10;;;12.60;99.90;;;;;;5134791;27;20047;-74
2022/07/02 04:43:40;;;;;;;8.73;4.90;;;12.70;99.90;;;;;;5115022;27;20100;-74
2022/07/02 04:46:07;;;;;;;9.82;4.78;;;12.80;99.90;;;;;;5133996;27;20054;-76
2022/07/02 04:48:35;;;;;;;8.40;5.15;;;12.90;99.90;;;;;;5115780;27;20491;-76
2022/07/02 04:51:02;;;;;;;14.43;5.85;;;12.90;99.90;;;;;;5133740;27;20091;-75
2022/07/02 04:53:29;;;;;;;10.15;5.57;;;13.10;99.90;;;;;;5134337;27;20112;-74
2022/07/02 04:55:55;;;;;;;8.75;5.18;;;13.20;99.90;;;;;;5134580;27;20051;-73
2022/07/02 04:58:22;;;;;;;9.55;5.70;;;13.30;99.90;;;;;;5154028;27;20095;-72
2022/07/02 05:00:49;;;;;;;9.05;5.45;;;13.40;99.90;;;;;;5136045;27;20043;-74
2022/07/02 05:03:16;;;;;;;9.43;5.50;;;13.50;99.90;;;;;;5139728;27;20050;-72
2022/07/02 05:05:45;;;;;;;10.40;5.78;;;13.70;99.90;;;;;;5135599;27;20509;-73
2022/07/02 05:08:13;;;;;;;10.95;5.65;;;14.00;99.90;;;;;;5127009;27;20058;-73
2022/07/02 05:10:40;;;;;;;11.90;6.20;;;14.20;99.90;;;;;;5119267;28;20115;-73
2022/07/02 05:13:07;;;;;;;11.73;6.10;;;14.40;99.90;;;;;;5115297;27;20190;-73
2022/07/02 05:15:34;;;;;;;9.90;5.72;;;14.50;99.90;;;;;;5119082;28;20070;-73
2022/07/02 05:18:01;;;;;;;7.82;6.50;;;14.70;99.90;;;;;;5116192;28;20501;-74
2022/07/02 05:20:28;;;;;;;9.75;6.40;;;14.80;99.90;;;;;;5114313;28;20051;-73
2022/07/02 05:22:56;;;;;;;12.60;6.22;;;14.80;99.90;;;;;;5131844;27;20054;-72
2022/07/02 05:25:23;;;;;;;11.93;5.85;;;15.10;99.90;;;;;;5116049;28;20103;-72
2022/07/02 05:27:50;;;;;;;11.35;6.68;;;15.20;99.90;;;;;;5114139;27;20043;-73
2022/07/02 05:30:17;;;;;;;8.18;5.63;;;15.30;99.90;;;;;;5131392;28;20245;-74
2022/07/02 05:32:44;;;;;;;10.02;5.72;;;15.40;99.90;;;;;;5136888;27;20095;-74
2022/07/02 05:35:11;;;;;;;12.25;6.53;;;15.60;99.90;;;;;;5152189;27;20043;-73
2022/07/02 05:37:38;;;;;;;11.60;5.60;;;15.80;99.90;;;;;;5150003;27;20506;-74
2022/07/02 05:40:07;;;;;;;7.30;5.07;;;16.00;99.90;;;;;;5131609;27;20099;-74
2022/07/02 05:42:34;;;;;;;11.32;5.68;;;16.20;99.90;;;;;;5154413;27;20054;-73
2022/07/02 05:45:01;;;;;;;6.13;4.80;;;16.30;99.90;;;;;;5136760;27;20047;-74
2022/07/02 05:47:29;;;;;;;6.57;4.07;;;16.50;99.90;;;;;;5142038;27;20047;-73
2022/07/02 05:49:56;;;;;;;7.05;4.85;;;16.60;99.90;;;;;;5133163;27;20452;-74
2022/07/02 05:52:24;;;;;;;9.07;5.30;;;16.80;99.90;;;;;;5130431;27;20055;-74
2022/07/02 05:54:51;;;;;;;9.02;4.85;;;17.00;99.90;;;;;;5129751;27;20506;-74
2022/07/02 05:57:19;;;;;;;8.13;4.50;;;17.10;99.90;;;;;;5131110;27;20099;-73
2022/07/02 05:59:46;;;;;;;11.68;5.38;;;17.40;99.90;;;;;;5149949;27;20043;-74
2022/07/02 06:02:13;;;;;;;8.77;4.30;;;17.60;99.90;;;;;;5151290;27;20095;-73
2022/07/02 06:04:39;;;;;;;12.75;4.50;;;17.70;99.90;;;;;;5149016;27;20046;-74
2022/07/02 06:09:51;;;;;;;6.50;3.60;;;17.90;99.90;;;;;;5151099;27;20120;-72
2022/07/02 06:12:20;;;;;;;6.97;3.53;;;17.90;99.90;;;;;;5147112;27;20058;-73
2022/07/02 06:14:47;;;;;;;6.25;3.78;;;17.90;99.90;;;;;;5127555;27;20521;-72
2022/07/02 06:17:14;;;;;;;7.47;4.00;;;18.00;99.90;;;;;;5145567;27;20046;-72
2022/07/02 06:19:42;;;;;;;9.90;3.92;;;18.20;99.90;;;;;;5132355;27;20047;-72
2022/07/02 06:22:09;;;;;;;7.20;3.53;;;18.20;99.90;;;;;;5128836;27;20047;-72
2022/07/02 06:24:36;;;;;;;6.38;3.42;;;18.30;99.90;;;;;;5129614;27;20043;-73
2022/07/02 06:27:03;;;;;;;13.25;4.13;;;18.40;99.90;;;;;;5129405;27;20096;-72
2022/07/02 06:29:31;;;;;;;7.32;3.75;;;18.50;99.90;;;;;;5152856;27;20099;-75
2022/07/02 06:31:58;;;;;;;4.15;3.00;;;18.50;99.90;;;;;;5149700;27;20054;-73
2022/07/02 06:34:25;;;;;;;6.65;3.95;;;18.60;99.90;;;;;;5133558;27;20050;-72
2022/07/02 06:36:52;;;;;;;5.53;3.10;;;18.70;99.90;;;;;;5147671;27;20059;-74
2022/07/02 06:39:19;;;;;;;5.80;3.58;;;18.90;99.90;;;;;;5149762;27;20043;-72
2022/07/02 06:44:46;;;;;;;5.40;3.28;;;19.20;99.90;;;;;;5091377;28;20474;-71
2022/07/02 06:47:14;;;;;;;6.47;2.90;;;19.50;99.90;;;;;;5080098;28;20047;-73
2022/07/02 06:49:40;;;;;;;14.38;3.47;;;19.50;99.90;;;;;;5111916;27;20099;-73
2022/07/02 06:52:08;;;;;;;7.30;3.03;;;19.70;99.90;;;;;;5133287;27;20050;-78
2022/07/02 06:54:36;;;;;;;5.68;3.03;;;19.70;99.90;;;;;;5132494;27;20051;-75
2022/07/02 06:57:03;;;;;;;7.03;3.40;;;19.90;99.90;;;;;;5129251;27;20055;-74
2022/07/02 06:59:31;;;;;;;6.32;2.70;;;19.90;99.90;;;;;;5155144;27;20511;-73
2022/07/02 07:02:00;;;;;;;4.43;2.35;;;20.10;99.90;;;;;;5147225;27;20482;-73
2022/07/02 07:04:28;;;;;;;6.03;2.40;;;20.30;99.90;;;;;;5129641;27;20050;-73
2022/07/02 07:06:55;;;;;;;6.57;2.55;;;20.40;99.90;;;;;;5146861;27;20145;-73
2022/07/02 07:09:22;;;;;;;3.97;2.22;;;20.60;99.90;;;;;;5127229;27;20047;-73
2022/07/02 07:11:49;;;;;;;4.80;2.47;;;20.70;99.90;;;;;;5127663;27;20074;-73
2022/07/02 07:14:16;;;;;;;3.95;2.45;;;21.20;99.90;;;;;;5133564;27;20038;-74
2022/07/02 07:16:43;;;;;;;5.97;3.22;;;21.60;99.90;;;;;;5130041;27;20530;-76
2022/07/02 07:19:11;;;;;;;8.68;2.50;;;21.70;99.90;;;;;;5147437;27;20069;-74
2022/07/02 07:21:41;;;;;;;3.88;2.10;;;22.00;99.90;;;;;;5144129;27;20039;-76
2022/07/02 07:24:09;;;;;;;8.50;2.35;;;22.10;99.90;;;;;;5129149;27;20050;-76
2022/07/02 07:26:37;;;;;;;5.38;2.17;;;22.10;99.90;;;;;;5127103;27;20497;-73
2022/07/02 07:29:05;;;;;;;3.90;2.50;;;22.20;99.90;;;;;;5128043;27;20522;-77
2022/07/02 07:31:33;;;;;;;3.65;2.25;;;22.20;99.90;;;;;;5120478;27;20118;-74
2022/07/02 07:34:00;;;;;;;4.68;1.70;;;22.40;99.90;;;;;;5139986;27;20566;-74
2022/07/02 07:36:29;;;;;;;3.85;1.90;;;22.50;99.90;;;;;;5133673;27;20055;-75
2022/07/02 07:38:56;;;;;;;4.57;1.63;;;22.60;99.90;;;;;;5132426;27;20881;-75
2022/07/02 07:41:24;;;;;;;4.57;1.98;;;22.60;99.50;;;;;;5122709;27;20055;-75
2022/07/02 07:43:52;;;;;;;5.55;2.00;;;22.70;99.30;;;;;;5126555;27;20098;-74
2022/07/02 07:46:19;;;;;;;7.22;1.88;;;23.00;98.40;;;;;;5132557;27;20065;-74
2022/07/02 07:48:46;;;;;;;5.05;1.80;;;23.10;97.90;;;;;;5131821;27;20049;-75
2022/07/02 07:51:13;;;;;;;3.55;1.55;;;23.20;97.50;;;;;;5126774;27;20099;-75
2022/07/02 07:53:43;;;;;;;3.70;1.63;;;23.10;96.40;;;;;;5133308;27;20051;-74
2022/07/02 07:56:10;;;;;;;4.00;1.65;;;23.00;95.60;;;;;;5129299;27;20487;-73
2022/07/02 07:58:38;;;;;;;3.97;1.85;;;23.30;96.10;;;;;;5152572;27;20054;-74
2022/07/02 08:01:05;;;;;;;3.30;1.73;;;23.70;95.90;;;;;;5127220;27;20055;-75
2022/07/02 08:03:32;;;;;;;4.35;1.70;;;23.80;94.80;;;;;;5121956;27;20047;-74
2022/07/02 08:05:58;;;;;;;5.65;1.70;;;23.90;94.00;;;;;;5130279;27;20530;-73
2022/07/02 08:08:25;;;;;;;6.82;1.77;;;23.80;94.00;;;;;;5132352;27;20087;-75
2022/07/02 08:10:53;;;;;;;4.55;1.77;;;23.90;93.60;;;;;;5132250;27;20058;-74
2022/07/02 08:13:20;;;;;;;5.70;1.40;;;24.00;92.50;;;;;;5114825;27;20099;-75
2022/07/02 08:15:47;;;;;;;3.33;1.38;;;23.90;93.20;;;;;;5114740;27;20603;-74
2022/07/02 08:18:14;;;;;;;4.80;1.27;;;24.10;93.40;;;;;;5140927;27;20100;-75
2022/07/02 08:20:41;;;;;;;2.75;1.30;;;24.40;92.90;;;;;;5115955;27;20407;-73
2022/07/02 08:23:08;;;;;;;4.50;1.42;;;24.50;92.10;;;;;;5115232;27;20095;-74
2022/07/02 08:25:35;;;;;;;2.67;1.15;;;24.80;91.40;;;;;;5116680;27;20103;-74
2022/07/02 08:28:04;;;;;;;5.13;1.35;;;24.90;91.20;;;;;;5115477;27;20055;-75
2022/07/02 08:30:31;;;;;;;5.03;1.70;;;25.00;89.80;;;;;;5134665;27;20112;-75
2022/07/02 08:32:58;;;;;;;4.50;1.35;;;25.10;89.40;;;;;;5134466;27;20050;-75
2022/07/02 08:35:24;;;;;;;2.78;1.10;;;25.00;88.80;;;;;;5133565;27;20465;-74
2022/07/02 08:37:52;;;;;;;4.47;1.73;;;24.90;88.30;;;;;;5134516;27;20047;-74
2022/07/02 08:40:24;;;;;;;2.30;1.00;;;25.00;87.60;;;;;;5116537;27;20058;-74
2022/07/02 08:42:53;;;;;;;4.95;1.40;;;25.00;86.20;;;;;;5115030;27;20133;-75
2022/07/02 08:45:22;;;;;;;4.80;1.30;;;25.10;86.30;;;;;;5121370;27;20462;-74
2022/07/02 08:47:52;;;;;;;2.28;1.10;;;25.30;86.30;;;;;;5154930;27;20051;-75
2022/07/02 08:50:20;;;;;;;4.13;1.00;;;25.50;85.70;;;;;;5135732;27;20050;-75
2022/07/02 08:52:50;;;;;;;3.15;1.15;;;25.60;84.20;;;;;;5136606;27;20073;-73
2022/07/02 08:55:18;;;;;;;2.80;1.10;;;25.60;83.30;;;;;;5136525;27;20053;-74
2022/07/02 08:57:45;;;;;;;6.57;1.30;;;25.40;83.80;;;;;;5135646;27;20170;-75
2022/07/02 09:00:13;;;;;;;4.35;1.05;;;25.50;83.40;;;;;;5129367;27;20103;-74
2022/07/02 09:02:43;;;;;;;3.08;1.08;;;25.70;83.70;;;;;;5134245;27;20092;-75
2022/07/02 09:05:12;;;;;;;4.55;1.27;;;25.80;82.40;;;;;;5115178;27;20096;-74
2022/07/02 09:07:40;;;;;;;2.85;1.20;;;25.80;81.90;;;;;;5115889;28;20410;-75
2022/07/02 09:10:10;;;;;;;2.88;0.85;;;26.10;81.10;;;;;;5133359;28;20047;-75
2022/07/02 09:12:36;;;;;;;;;;;26.20;79.80;;;;;;5134413;28;20051;-75
2022/07/02 09:15:04;;;;;;;1.33;0.70;;;26.20;78.10;;;;;;5133994;28;19920;-75
2022/07/02 09:17:31;;;;;;;2.97;0.98;;;26.00;77.80;;;;;;5135616;27;20058;-76
2022/07/02 09:20:00;;;;;;;3.58;0.98;;;26.20;77.50;;;;;;5145292;27;20111;-75
2022/07/02 09:22:35;;;;;;;2.70;0.93;;;26.30;77.00;;;;;;5130168;27;20085;-75
2022/07/02 09:25:11;;;;;;;1.90;0.73;;;26.50;75.70;;;;;;5143351;27;20076;-75
2022/07/02 09:27:38;;;;;;;2.63;0.77;;;26.30;73.70;;;;;;5133039;27;20050;-76
2022/07/02 09:30:06;;;;;;;3.00;1.05;;;26.20;75.00;;;;;;5158978;27;20047;-75
2022/07/02 09:32:39;;;;;;;2.08;0.73;;;26.50;75.30;;;;;;5139559;27;20110;-75
2022/07/02 09:35:08;;;;;;;1.73;0.70;;;26.50;73.90;;;;;;5158446;27;20108;-76
2022/07/02 09:37:35;;;;;;;2.13;0.80;;;26.50;74.10;;;;;;5140033;27;20435;-75
2022/07/02 09:40:03;;;;;;;2.10;0.80;;;26.60;74.60;;;;;;5157690;27;20047;-75
2022/07/02 09:42:32;;;;;;;2.92;0.85;;;26.90;74.70;;;;;;5143003;27;20515;-74
2022/07/02 09:45:01;;;;;;;4.57;1.00;;;27.10;74.40;;;;;;5118981;27;20050;-74
2022/07/02 09:47:33;;;;;;;4.00;1.00;;;27.30;74.20;;;;;;5118432;27;20043;-75
2022/07/02 09:50:04;;;;;;;4.05;0.90;;;27.50;71.50;;;;;;5118862;27;20058;-75
2022/07/02 09:52:33;;;;;;;2.88;0.70;;;27.80;72.30;;;;;;5136190;27;20047;-76
2022/07/02 09:55:00;;;;;;;2.03;0.85;;;28.00;72.00;;;;;;5137734;27;20258;-77
2022/07/02 09:57:28;;;;;;;2.65;0.80;;;28.30;71.70;;;;;;5130157;27;20111;-75
2022/07/02 10:00:04;;;;;;;3.80;0.60;;;28.30;70.10;;;;;;5136015;27;20043;-76
2022/07/02 10:02:31;;;;;;;2.88;0.77;;;28.70;67.80;;;;;;5117823;27;20483;-75
2022/07/02 10:04:58;;;;;;;3.80;1.00;;;28.70;67.90;;;;;;5120901;27;20051;-75
2022/07/02 10:07:25;;;;;;;1.55;0.60;;;28.90;66.80;;;;;;5121528;27;20055;-75
2022/07/02 10:09:53;;;;;;;2.03;0.75;;;28.60;67.60;;;;;;5124186;27;20058;-76
2022/07/02 10:12:20;;;;;;;1.98;0.70;;;29.10;67.60;;;;;;5118829;27;20050;-75
2022/07/02 10:14:48;;;;;;;5.47;0.70;;;29.10;67.60;;;;;;5119902;27;20384;-75
2022/07/02 10:17:16;;;;;;;3.08;0.68;;;28.10;65.00;;;;;;5118445;27;20050;-75
2022/07/02 10:19:43;;;;;;;1.92;0.60;;;27.90;66.40;;;;;;5123663;27;20053;-76
2022/07/02 10:22:10;;;;;;;2.72;0.90;;;27.50;66.40;;;;;;5134876;27;20059;-76
2022/07/02 10:24:38;;;;;;;3.53;0.70;;;27.60;67.10;;;;;;5136229;27;20051;-76
2022/07/02 10:27:07;;;;;;;1.70;0.60;;;27.40;67.90;;;;;;5123568;27;20047;-76
2022/07/02 10:29:34;;;;;;;3.83;0.88;;;27.70;68.80;;;;;;5116392;27;20080;-75
2022/07/02 10:32:10;;;;;;;2.50;1.00;;;28.10;69.20;;;;;;5138129;27;20051;-76
2022/07/02 10:34:48;;;;;;;2.88;0.57;;;28.40;68.50;;;;;;5132769;27;20154;-76
2022/07/02 10:37:16;;;;;;;2.72;0.70;;;28.10;67.80;;;;;;5129334;27;20104;-76
2022/07/02 10:39:44;;;;;;;2.25;0.60;;;28.20;67.60;;;;;;5120522;27;20043;-76
2022/07/02 10:42:12;;;;;;;3.05;0.60;;;28.10;67.60;;;;;;5132468;27;20055;-76
2022/07/02 10:44:39;;;;;;;3.13;0.82;;;28.00;67.10;;;;;;5145018;27;20114;-76
2022/07/02 10:47:16;;;;;;;3.47;0.70;;;27.50;67.10;;;;;;5132810;27;20552;-75
2022/07/02 10:49:43;;;;;;;2.92;0.70;;;27.80;67.10;;;;;;5118282;27;20078;-77
2022/07/02 10:52:10;;;;;;;2.10;0.70;;;27.90;65.70;;;;;;5126482;27;20051;-76
2022/07/02 10:54:37;;;;;;;1.90;0.63;;;28.70;66.60;;;;;;5143376;27;20110;-75
2022/07/02 10:57:04;;;;;;;1.77;0.50;;;28.90;66.20;;;;;;5148400;27;20051;-74
2022/07/02 10:59:36;;;;;;;3.65;1.05;;;29.30;65.20;;;;;;5139569;27;20043;-74
2022/07/02 11:02:06;;;;;;;2.42;0.70;;;29.40;64.60;;;;;;5136325;27;20047;-73
2022/07/02 11:04:34;;;;;;;1.75;0.55;;;29.20;63.40;;;;;;5135223;27;20043;-74
2022/07/02 11:07:06;;;;;;;2.70;0.70;;;28.80;63.60;;;;;;5128910;27;20499;-75
2022/07/02 11:09:33;;;;;;;1.38;0.68;;;28.80;63.60;;;;;;5131055;27;20140;-77
2022/07/02 11:12:01;;;;;;;3.28;0.70;;;28.70;64.10;;;;;;5139027;27;20091;-77
2022/07/02 11:14:29;;;;;;;2.50;0.50;;;28.50;64.10;;;;;;5120879;27;20497;-77
2022/07/02 11:16:58;;;;;;;2.33;0.65;;;28.30;64.40;;;;;;5139303;27;20047;-77
2022/07/02 11:19:26;;;;;;;2.35;0.65;;;28.50;64.60;;;;;;5135306;27;20563;-76
2022/07/02 11:21:57;;;;;;;4.77;0.93;;;28.40;64.10;;;;;;5134929;27;20476;-75
2022/07/02 11:24:25;;;;;;;1.48;0.50;;;28.70;64.00;;;;;;5131313;27;20050;-77
2022/07/02 11:26:53;;;;;;;2.70;0.77;;;28.90;62.90;;;;;;5133125;27;20198;-77
2022/07/02 11:29:20;;;;;;;2.67;0.70;;;28.70;63.20;;;;;;5127532;27;21241;-77
2022/07/02 11:31:49;;;;;;;2.20;0.50;;;28.30;63.40;;;;;;5134066;27;20111;-77
2022/07/02 11:34:20;;;;;;;2.75;0.60;;;27.80;63.60;;;;;;5140004;27;20043;-77
2022/07/02 11:36:47;;;;;;;2.88;1.00;;;27.10;63.90;;;;;;5140129;27;20051;-77
2022/07/02 11:39:16;;;;;;;2.00;0.63;;;26.60;64.60;;;;;;5154335;27;20095;-77
2022/07/02 11:41:44;;;;;;;3.75;0.60;;;26.40;64.70;;;;;;5142963;27;20456;-77
2022/07/02 11:44:16;;;;;;;4.03;0.55;;;26.20;65.30;;;;;;5116364;27;20067;-76
2022/07/02 11:46:44;;;;;;;1.67;0.50;;;26.70;65.40;;;;;;5138739;27;20062;-76
2022/07/02 11:49:17;;;;;;;3.03;0.60;;;26.80;65.00;;;;;;5120937;27;20051;-74
2022/07/02 11:51:45;;;;;;;1.98;0.60;;;26.70;65.00;;;;;;5125794;27;20099;-79
2022/07/02 11:54:13;;;;;;;1.90;0.50;;;26.80;65.00;;;;;;5139964;27;20043;-77
2022/07/02 11:56:41;;;;;;;2.55;0.55;;;27.30;65.00;;;;;;5123065;27;20212;-76
2022/07/02 11:59:10;;;;;;;1.67;0.70;;;27.70;64.50;;;;;;5144195;27;20043;-76
2022/07/02 12:01:39;;;;;;;1.27;0.50;;;27.80;64.20;;;;;;5145656;27;20046;-75
2022/07/02 12:04:07;;;;;;;2.90;0.88;;;27.60;64.20;;;;;;5149342;27;20035;-75
2022/07/02 12:06:37;;;;;;;2.17;0.80;;;27.70;64.70;;;;;;5133318;27;20451;-75
2022/07/02 12:09:07;;;;;;;3.30;0.55;;;27.30;64.20;;;;;;5134347;27;20047;-75
2022/07/02 12:11:35;;;;;;;1.50;0.50;;;27.30;65.00;;;;;;5136121;27;20058;-75
2022/07/02 12:14:04;;;;;;;2.05;0.60;;;26.90;65.40;;;;;;5132340;27;20047;-76
2022/07/02 12:16:32;;;;;;;1.48;0.60;;;26.60;65.80;;;;;;5125929;27;20103;-75
2022/07/02 12:19:00;;;;;;;1.85;0.70;;;26.60;66.40;;;;;;5140979;27;20116;-76
2022/07/02 12:21:34;;;;;;;2.78;0.65;;;26.70;65.80;;;;;;5153697;27;20050;-77
2022/07/02 12:24:03;;;;;;;2.83;0.65;;;26.70;65.40;;;;;;5131812;27;20364;-77
2022/07/02 12:26:31;;;;;;;2.22;0.60;;;26.50;65.20;;;;;;5119797;27;20503;-77
2022/07/02 12:31:50;;;;;;;2.05;0.70;;;26.60;65.90;;;;;;5153865;27;20046;-80
2022/07/02 12:34:18;;;;;;;0.98;0.50;;;26.80;66.30;;;;;;5148062;27;20042;-77
2022/07/02 12:36:51;;;;;;;2.78;0.80;;;26.90;65.80;;;;;;5122829;27;20039;-77
2022/07/02 12:39:20;;;;;;;1.63;0.70;;;27.20;65.70;;;;;;5124582;27;20079;-75
2022/07/02 12:41:47;;;;;;;1.48;0.60;;;27.10;64.90;;;;;;5118284;27;20051;-76
2022/07/02 12:44:18;;;;;;;1.23;0.50;;;27.20;64.90;;;;;;5118914;27;20083;-76
2022/07/02 12:46:47;;;;;;;2.00;0.65;;;27.90;64.90;;;;;;5111198;28;20047;-77
2022/07/02 12:49:18;;;;;;;3.65;0.70;;;28.80;64.60;;;;;;5112184;28;20058;-76
2022/07/02 12:52:02;;;;;;;1.70;0.60;;;29.30;62.10;;;;;;5112419;28;20047;-76
2022/07/02 12:54:41;;;;;;;2.53;0.55;;;29.60;61.80;;;;;;5120919;27;20047;-78
2022/07/02 12:57:16;;;;;;;1.17;0.50;;;29.20;61.00;;;;;;5113348;27;20043;-76
2022/07/02 12:59:43;;;;;;;1.17;0.50;;;29.00;61.50;;;;;;5113409;28;20065;-77
2022/07/02 13:02:15;;;;;;;1.35;0.40;;;28.60;62.10;;;;;;5126934;27;20054;-75